Portada
METAR-TAF:

METAR-TAF

Aeroports :

Bukharà, Uzbekistan

latitud: 39-46-30N, longitud: 064-29-00E, altitud: 229 m

Observació

L'informe es va fer fa 35 minuts, a les 03:30 UTC
Vent 4 kt del Est
Temperatura 1°C
Humitat 80%
Pressió 1022 hPa
Visibilitat: 3500 m
boirina

METAR: UTSB 200330Z 09004KT 3500 BR NSC 01/M02 Q1022 R01/CLRD70 NOSIG

Hora: 09:05 (04:05 UTC)

Pronòstic

L'informe es va fer fa 5 hores i 5 minuts, a les 23:00 UTC
Pronòstic vàlid del 20 a les 00 UTC al 20 a les 24 UTC
Vent 3 kt amb direcció variable
Visibilitat: 7000 m
Temporalment
l' 20 a les 00 UTC al 20 a les 04 UTC
Vent 10 kt del Est
Visibilitat: 0500 m
a una alçada de 200 ft
boira gebradora
Temporalment
l' 20 a les 04 UTC al 20 a les 13 UTC
Vent 12 kt del Est
Visibilitat: 3000 m
Núvols disperses a una alçada de 3300 ft
boirina

TAF: UTSB 192300Z 2000/2024 VRB03KT 7000 NSC TEMPO 2000/2004 09010KT 0500 FZFG VV002 TEMPO 2004/2013 10012KT 3000 BR SCT033

Observacions i pronòstics meteorològics de més de 4000 aeroports (METAR i TAF).

Les estacions disponibles són els punts grocs i vermells al mapa.

Posi el ratolí al punt desitjat per veure el nom de l'estació.

Feu clic per veure les observacions i els pronòstics meteorològics.

Per canviar el mapa: feu clic els botons verds amb una creu de color negre per apropar; al botó verd amb un guió per allunyar la imatge; o en les fletxes verdes per a mapes adjacents.


METAR-TAF: